Time;durP1;ratioP1;P1;durP2;ratioP2;P2;SDS_P1;SDS_P2;PMS_P1;PMS_P2;Temp;Humidity;BMP_temperature;BMP_pressure;BME280_temperature;BME280_humidity;BME280_pressure;Samples;Min_cycle;Max_cycle;Signal;HPM_P1;HPM_P2
2021/10/28 00:12:26;;;;;;;19.60;11.50;;;;;;;4.72;77.61;99672.02;112537;1193;73238;-22
2021/10/28 00:14:56;;;;;;;13.40;7.90;;;;;;;4.44;78.76;99671.62;112522;1192;75430;-22
2021/10/28 00:17:44;;;;;;;17.40;10.10;;;;;;;4.58;79.02;99665.30;112449;1191;72763;-23
2021/10/28 00:20:12;;;;;;;20.60;10.50;;;;;;;5.18;77.42;99663.65;112493;1191;60875;-22
2021/10/28 00:22:40;;;;;;;19.90;11.40;;;;;;;5.24;77.07;99665.92;112441;1193;60935;-23
2021/10/28 00:25:09;;;;;;;18.60;11.90;;;;;;;5.08;76.36;99663.45;112458;1192;75212;-24
2021/10/28 00:27:37;;;;;;;14.60;9.20;;;;;;;4.78;76.21;99659.21;112517;1190;75757;-24
2021/10/28 00:30:06;;;;;;;17.60;9.50;;;;;;;4.39;77.15;99655.83;112488;1190;73017;-24
2021/10/28 00:32:34;;;;;;;18.60;9.50;;;;;;;4.26;78.94;99656.08;112361;1193;61574;-22
2021/10/28 00:35:03;;;;;;;20.10;11.70;;;;;;;4.92;78.19;99657.14;112523;1190;60793;-22
2021/10/28 00:37:32;;;;;;;16.30;10.20;;;;;;;5.24;76.99;99656.16;112402;1190;74248;-22
2021/10/28 00:40:00;;;;;;;20.30;11.90;;;;;;;5.14;76.87;99656.41;112450;1190;74689;-22
2021/10/28 00:42:29;;;;;;;19.10;12.40;;;;;;;4.94;77.01;99655.85;112518;1192;73960;-22
2021/10/28 00:44:57;;;;;;;18.90;12.30;;;;;;;4.71;76.97;99661.38;112299;1190;62337;-22
2021/10/28 00:47:26;;;;;;;23.50;12.70;;;;;;;4.50;77.14;99661.88;112456;1190;60748;-22
2021/10/28 00:49:55;;;;;;;15.10;8.00;;;;;;;4.31;77.57;99662.23;112514;1190;74002;-23
2021/10/28 00:52:23;;;;;;;21.70;10.90;;;;;;;4.74;77.77;99664.84;112493;1190;74755;-22
2021/10/28 00:54:51;;;;;;;19.80;12.10;;;;;;;5.31;76.47;99661.27;112342;1192;74306;-22
2021/10/28 00:57:20;;;;;;;20.60;11.10;;;;;;;5.36;75.74;99660.86;112450;1193;60796;-21
2021/10/28 00:59:49;;;;;;;20.70;11.00;;;;;;;5.12;75.17;99661.33;112528;1190;60993;-23
2021/10/28 01:02:18;;;;;;;20.80;12.70;;;;;;;4.74;75.81;99662.64;112502;1190;74992;-23
2021/10/28 01:04:47;;;;;;;19.70;11.40;;;;;;;4.40;76.29;99662.15;112505;1191;74979;-22
2021/10/28 01:07:15;;;;;;;14.20;9.00;;;;;;;4.09;76.90;99658.91;112510;1193;73946;-23
2021/10/28 01:09:45;;;;;;;16.30;10.00;;;;;;;4.39;77.09;99654.97;112483;1193;60815;-22
2021/10/28 01:12:13;;;;;;;17.00;11.50;;;;;;;4.75;76.34;99650.58;112416;1190;61482;-24
2021/10/28 01:14:44;;;;;;;21.70;13.20;;;;;;;4.72;76.99;99653.81;112269;1193;74003;-23
2021/10/28 01:17:12;;;;;;;19.20;11.50;;;;;;;4.56;77.71;99648.70;112228;1193;75985;-22
2021/10/28 01:19:43;;;;;;;19.70;12.80;;;;;;;4.28;79.59;99646.19;112407;1191;73024;-23
2021/10/28 01:22:11;;;;;;;19.80;12.40;;;;;;;4.04;81.47;99637.80;112439;1190;60877;-23
2021/10/28 01:24:41;;;;;;;15.50;9.00;;;;;;;4.11;80.42;99635.61;112561;1190;61800;-23
2021/10/28 01:27:09;;;;;;;18.30;9.80;;;;;;;4.79;78.89;99636.23;112534;1190;75252;-22
2021/10/28 01:29:37;;;;;;;19.20;11.00;;;;;;;5.18;77.66;99632.80;112560;1193;74651;-22
2021/10/28 01:32:06;;;;;;;17.60;10.50;;;;;;;5.17;77.31;99629.11;112542;1190;73827;-22
2021/10/28 01:34:35;;;;;;;17.20;10.80;;;;;;;5.05;77.79;99628.64;112464;1193;60893;-22
2021/10/28 01:37:03;;;;;;;19.90;12.70;;;;;;;4.90;77.71;99634.50;112608;1190;60784;-22
2021/10/28 01:39:32;;;;;;;18.40;8.40;;;;;;;4.79;78.26;99631.63;112432;1193;74380;-23
2021/10/28 01:42:02;;;;;;;19.10;10.60;;;;;;;5.26;78.11;99623.29;112542;1190;75854;-22
2021/10/28 01:44:32;;;;;;;23.20;12.40;;;;;;;5.78;76.85;99618.28;112549;1191;71960;-21
2021/10/28 01:47:01;;;;;;;20.50;12.00;;;;;;;5.86;76.31;99616.33;112222;1193;61630;-21
2021/10/28 01:49:30;;;;;;;18.10;11.40;;;;;;;5.71;76.53;99616.76;112581;1190;61634;-20
2021/10/28 01:51:58;;;;;;;19.80;12.30;;;;;;;5.50;77.03;99616.07;112286;1193;75118;-22
2021/10/28 01:54:28;;;;;;;20.60;10.20;;;;;;;5.31;77.74;99616.50;112492;1190;74633;-24
2021/10/28 01:56:57;;;;;;;19.80;10.40;;;;;;;5.77;77.44;99617.42;112404;1190;73718;-22
2021/10/28 01:59:29;;;;;;;15.60;10.90;;;;;;;6.20;75.86;99616.77;112440;1191;60818;-23
2021/10/28 02:01:58;;;;;;;18.80;11.10;;;;;;;6.18;75.49;99615.69;112542;1190;60833;-24
2021/10/28 02:04:28;;;;;;;18.70;11.70;;;;;;;5.96;75.91;99621.83;112412;1193;73738;-22
2021/10/28 02:06:56;;;;;;;21.60;12.10;;;;;;;5.70;76.41;99620.20;112479;1193;75585;-25
2021/10/28 02:09:25;;;;;;;20.90;12.10;;;;;;;5.45;76.85;99618.38;112512;1190;73969;-24
2021/10/28 02:11:53;;;;;;;13.80;7.70;;;;;;;5.27;77.28;99620.19;112506;1192;62512;-24
2021/10/28 02:14:22;;;;;;;16.60;9.60;;;;;;;5.72;77.21;99619.41;112513;1193;60911;-23
2021/10/28 02:16:50;;;;;;;20.00;9.80;;;;;;;6.26;75.44;99622.84;112588;1190;75220;-23
2021/10/28 02:19:19;;;;;;;19.90;11.20;;;;;;;6.28;75.05;99625.81;112538;1190;74441;-22
2021/10/28 02:21:48;;;;;;;19.90;12.10;;;;;;;6.07;75.25;99631.23;112550;1190;73856;-22
2021/10/28 02:24:16;;;;;;;16.50;10.40;;;;;;;5.79;75.72;99631.99;112533;1191;60777;-22
2021/10/28 02:26:45;;;;;;;21.10;12.20;;;;;;;5.54;76.44;99628.64;112537;1190;61392;-22
2021/10/28 02:29:13;;;;;;;16.90;9.30;;;;;;;5.34;77.07;99634.80;112512;1192;75105;-23
2021/10/28 02:31:46;;;;;;;22.80;10.00;;;;;;;5.76;77.01;99637.30;112523;1193;74683;-22
2021/10/28 02:34:15;;;;;;;18.70;9.80;;;;;;;6.21;75.47;99637.23;112436;1192;71307;-22
2021/10/28 02:36:43;;;;;;;22.60;12.70;;;;;;;6.17;75.41;99630.02;112415;1190;60844;-22
2021/10/28 02:39:11;;;;;;;20.50;13.20;;;;;;;5.99;75.47;99638.40;112500;1191;61396;-24
2021/10/28 02:41:40;;;;;;;21.00;11.90;;;;;;;5.75;76.01;99633.25;112455;1191;75019;-24
2021/10/28 02:44:10;;;;;;;19.40;12.20;;;;;;;5.50;76.37;99630.38;112552;1190;74601;-23
2021/10/28 02:46:42;;;;;;;15.70;9.20;;;;;;;5.38;77.56;99631.66;112483;1191;72566;-22
2021/10/28 02:49:14;;;;;;;20.90;10.30;;;;;;;5.96;76.57;99627.31;112532;1190;61656;-22
2021/10/28 02:51:47;;;;;;;20.80;11.40;;;;;;;6.28;75.26;99628.56;112276;1192;61674;-22
2021/10/28 02:54:18;;;;;;;16.40;10.10;;;;;;;6.18;75.18;99633.96;112222;1192;75599;-23
2021/10/28 02:56:46;;;;;;;19.20;11.40;;;;;;;5.91;75.80;99633.61;112475;1190;75869;-22
2021/10/28 02:59:15;;;;;;;25.40;13.30;;;;;;;5.65;76.04;99630.85;112479;1193;72656;-22
2021/10/28 03:01:47;;;;;;;21.90;12.60;;;;;;;5.41;76.55;99632.52;112543;1190;60847;-22
2021/10/28 03:04:19;;;;;;;17.40;8.60;;;;;;;5.24;77.30;99632.04;112236;1193;61980;-22
2021/10/28 03:06:48;;;;;;;19.80;11.00;;;;;;;5.74;76.82;99634.29;112205;1193;73747;-23
2021/10/28 03:09:19;;;;;;;24.60;11.10;;;;;;;6.17;75.09;99632.09;112462;1190;75445;-22
2021/10/28 03:11:50;;;;;;;21.90;13.00;;;;;;;6.15;74.97;99634.09;112154;1194;72973;-22
2021/10/28 03:14:23;;;;;;;22.30;12.50;;;;;;;5.90;75.45;99634.67;112227;1193;61165;-22
2021/10/28 03:17:03;;;;;;;20.30;12.60;;;;;;;5.65;76.05;99631.48;112487;1191;60809;-22
2021/10/28 03:27:36;;;;;;;17.70;10.80;;;;;;;6.40;74.54;99643.96;112484;1193;60922;-22
2021/10/28 03:30:06;;;;;;;23.40;12.50;;;;;;;6.27;74.73;99644.15;112270;1193;61763;-22
2021/10/28 03:32:35;;;;;;;21.60;12.30;;;;;;;6.04;74.96;99648.83;112462;1190;74219;-22
2021/10/28 03:35:06;;;;;;;26.10;14.00;;;;;;;5.78;75.71;99646.86;112544;1193;75371;-22
2021/10/28 03:38:01;;;;;;;20.40;12.30;;;;;;;5.53;76.79;99650.73;112464;1193;73155;-22
2021/10/28 03:51:58;;;;;;;21.20;11.60;;;;;;;6.39;74.31;99667.84;112265;1193;72461;-22
2021/10/28 03:59:35;;;;;;;15.80;8.10;;;;;;;5.60;76.34;99667.57;112484;1192;75139;-22
2021/10/28 04:18:30;;;;;;;14.20;7.90;;;;;;;5.27;76.83;99649.98;112427;1192;73422;-22
2021/10/28 04:31:24;;;;;;;18.50;11.90;;;;;;;5.63;75.39;99650.73;112477;1190;73858;-22
2021/10/28 04:33:55;;;;;;;21.30;12.70;;;;;;;5.34;76.22;99653.73;112165;1193;60885;-22
2021/10/28 04:36:28;;;;;;;16.50;8.70;;;;;;;5.14;76.83;99648.52;112462;1190;60789;-22
2021/10/28 04:38:57;;;;;;;19.50;9.90;;;;;;;5.57;76.49;99646.73;112540;1190;74947;-22
2021/10/28 04:41:26;;;;;;;15.20;9.60;;;;;;;6.05;74.93;99649.59;112529;1190;74073;-22
2021/10/28 04:44:01;;;;;;;17.90;10.50;;;;;;;6.06;74.44;99646.99;112161;1193;74144;-22
2021/10/28 04:46:29;;;;;;;20.30;11.40;;;;;;;5.82;74.70;99645.98;112366;1192;60809;-22
2021/10/28 04:48:57;;;;;;;15.80;10.10;;;;;;;5.51;75.43;99645.29;112484;1190;61394;-23
2021/10/28 04:51:25;;;;;;;18.90;12.30;;;;;;;5.23;76.17;99643.57;112494;1190;75585;-22
2021/10/28 04:53:54;;;;;;;13.70;7.10;;;;;;;5.02;76.84;99645.66;112563;1190;75734;-24
2021/10/28 04:56:22;;;;;;;18.80;10.50;;;;;;;5.40;77.05;99647.53;112543;1190;74031;-22
2021/10/28 04:58:51;;;;;;;17.30;10.10;;;;;;;5.93;75.37;99652.98;112443;1193;61672;-22
2021/10/28 05:01:22;;;;;;;17.30;11.10;;;;;;;5.97;74.86;99652.09;112521;1190;60760;-22
2021/10/28 05:03:51;;;;;;;19.00;10.90;;;;;;;5.76;75.18;99653.48;112486;1193;75362;-22
2021/10/28 05:06:19;;;;;;;18.80;12.20;;;;;;;5.52;75.67;99646.10;112563;1190;76992;-22
2021/10/28 05:08:48;;;;;;;19.60;12.30;;;;;;;5.27;76.64;99641.16;112495;1191;73069;-24
2021/10/28 05:11:18;;;;;;;13.70;8.50;;;;;;;5.12;77.08;99641.39;112549;1190;61573;-22
2021/10/28 05:13:47;;;;;;;18.50;9.80;;;;;;;5.60;76.52;99635.34;112465;1193;61409;-24
2021/10/28 05:16:15;;;;;;;21.10;10.70;;;;;;;6.15;75.13;99636.67;112528;1190;74174;-24
2021/10/28 05:18:45;;;;;;;19.10;11.00;;;;;;;6.20;74.56;99635.23;112519;1190;74619;-23
2021/10/28 05:21:19;;;;;;;18.70;10.40;;;;;;;6.00;74.97;99637.30;112334;1192;73182;-21
2021/10/28 05:23:48;;;;;;;21.40;11.40;;;;;;;5.78;75.51;99641.33;112530;1190;60828;-22
2021/10/28 05:26:17;;;;;;;11.80;8.10;;;;;;;5.57;75.98;99641.54;112556;1190;60755;-23
2021/10/28 05:28:45;;;;;;;16.10;8.70;;;;;;;5.43;76.98;99648.10;112497;1190;75970;-23
2021/10/28 05:31:14;;;;;;;21.00;10.00;;;;;;;5.92;76.55;99656.50;112391;1191;75666;-23
2021/10/28 05:33:43;;;;;;;17.70;9.90;;;;;;;6.47;74.52;99664.80;112474;1190;74068;-23
2021/10/28 05:36:11;;;;;;;19.50;11.10;;;;;;;6.55;73.98;99672.82;112525;1190;61166;-24
2021/10/28 05:38:40;;;;;;;19.10;11.90;;;;;;;6.38;74.53;99669.96;112296;1193;61135;-23
2021/10/28 05:41:08;;;;;;;17.00;10.80;;;;;;;6.17;75.36;99672.41;112567;1190;73878;-23
2021/10/28 05:43:37;;;;;;;15.90;9.90;;;;;;;5.93;76.18;99671.97;112453;1192;74801;-22
2021/10/28 05:46:05;;;;;;;21.00;12.00;;;;;;;5.73;76.73;99676.38;112519;1190;73776;-22
2021/10/28 05:48:35;;;;;;;18.70;10.00;;;;;;;5.62;77.78;99676.59;112528;1191;61523;-22
2021/10/28 05:51:04;;;;;;;17.20;11.70;;;;;;;6.16;76.58;99680.78;112507;1190;60771;-22
2021/10/28 05:53:32;;;;;;;19.40;12.00;;;;;;;6.71;74.49;99686.13;112466;1190;74115;-23
2021/10/28 05:56:00;;;;;;;19.40;10.80;;;;;;;6.79;74.08;99688.23;112479;1190;75814;-23
2021/10/28 05:58:29;;;;;;;22.00;11.60;;;;;;;6.66;74.45;99686.05;112545;1192;73284;-23
2021/10/28 06:01:01;;;;;;;23.70;12.90;;;;;;;6.46;75.28;99689.70;112450;1193;61288;-22
2021/10/28 06:03:30;;;;;;;27.00;14.80;;;;;;;6.25;76.35;99694.77;112444;1192;60863;-23
2021/10/28 06:05:58;;;;;;;16.10;10.00;;;;;;;6.14;77.03;99698.13;112510;1190;75268;-23
2021/10/28 06:08:27;;;;;;;25.70;12.90;;;;;;;6.62;75.95;99707.80;112448;1190;75608;-23
2021/10/28 06:10:56;;;;;;;18.00;10.20;;;;;;;7.12;73.99;99713.67;112297;1193;74049;-23
2021/10/28 06:13:26;;;;;;;20.80;11.60;;;;;;;7.17;73.45;99710.48;112400;1190;60892;-22
2021/10/28 06:15:56;;;;;;;22.30;12.20;;;;;;;7.00;73.92;99709.73;112515;1193;61642;-22
2021/10/28 06:20:55;;;;;;;20.00;11.40;;;;;;;6.69;75.23;99705.71;112473;1190;75685;-22
2021/10/28 06:23:23;;;;;;;16.70;10.80;;;;;;;6.56;76.06;99705.36;112488;1190;73115;-22
2021/10/28 06:25:54;;;;;;;16.70;10.10;;;;;;;6.53;76.50;99702.77;112460;1190;63035;-22
2021/10/28 06:28:22;;;;;;;16.30;10.40;;;;;;;7.10;75.27;99709.13;112446;1190;61523;-22
2021/10/28 06:30:50;;;;;;;18.70;10.70;;;;;;;7.65;73.08;99707.20;112441;1192;74197;-24
2021/10/28 06:33:21;;;;;;;17.90;10.90;;;;;;;7.82;72.96;99711.95;112532;1190;74664;-23
2021/10/28 06:35:50;;;;;;;20.70;11.50;;;;;;;7.79;73.10;99714.69;112492;1192;74794;-22
2021/10/28 06:38:18;;;;;;;18.60;11.10;;;;;;;7.79;73.32;99719.73;112491;1190;60838;-21
2021/10/28 06:40:47;;;;;;;16.30;10.80;;;;;;;7.86;73.52;99722.78;112370;1192;60796;-22
2021/10/28 06:43:15;;;;;;;23.00;12.00;;;;;;;7.87;73.76;99727.69;112470;1190;74413;-23
2021/10/28 06:45:44;;;;;;;15.40;9.10;;;;;;;7.93;73.25;99722.88;112516;1190;73247;-24
2021/10/28 06:48:13;;;;;;;20.40;12.10;;;;;;;8.07;73.35;99728.45;112491;1190;72967;-22
2021/10/28 06:50:48;;;;;;;27.60;14.00;;;;;;;8.20;73.34;99727.33;112424;1193;60803;-22
2021/10/28 06:53:23;;;;;;;20.90;13.80;;;;;;;8.44;72.57;99731.94;112452;1192;60779;-22
2021/10/28 07:03:56;;;;;;;19.80;10.90;;;;;;;8.27;73.24;99733.27;112382;1192;60790;-22
2021/10/28 07:06:26;;;;;;;16.30;9.90;;;;;;;8.67;72.04;99733.48;112537;1190;61571;-23
2021/10/28 07:09:02;;;;;;;17.90;8.60;;;;;;;9.48;69.47;99735.77;112487;1190;74151;-22
2021/10/28 07:11:34;;;;;;;19.20;10.40;;;;;;;9.93;68.53;99742.68;112532;1190;75596;-22
2021/10/28 07:14:06;;;;;;;17.60;9.90;;;;;;;10.09;67.45;99744.58;112521;1190;74239;-22
2021/10/28 07:16:40;;;;;;;16.60;10.70;;;;;;;10.15;67.85;99745.67;112391;1192;61590;-22
2021/10/28 07:25:33;;;;;;;20.40;13.00;;;;;;;10.01;67.91;99738.48;112488;1190;74457;-22
2021/10/28 07:30:25;;;;;;;22.80;12.50;;;;;;;9.47;69.70;99742.58;112483;1190;60818;-22
2021/10/28 07:33:20;;;;;;;22.50;14.10;;;;;;;9.38;70.08;99743.33;112457;1190;60756;-22
2021/10/28 07:55:52;;;;;;;17.20;11.20;;;;;;;10.21;68.20;99728.27;112513;1190;73089;-22
2021/10/28 08:15:23;;;;;;;13.50;9.50;;;;;;;11.07;65.96;99709.48;112362;1193;61463;-22
2021/10/28 08:20:18;;;;;;;19.20;11.40;;;;;;;11.29;66.28;99713.90;112471;1190;75754;-22
2021/10/28 08:23:00;;;;;;;18.50;10.00;;;;;;;11.64;65.00;99718.98;112442;1191;73168;-22
2021/10/28 08:31:04;;;;;;;16.90;9.60;;;;;;;11.61;65.22;99731.19;112433;1193;75289;-22
2021/10/28 08:33:33;;;;;;;15.90;10.10;;;;;;;11.71;65.10;99738.63;112509;1177;75744;-22
2021/10/28 08:36:13;;;;;;;14.50;8.70;;;;;;;11.38;65.58;99740.38;112369;1193;74289;-23
2021/10/28 08:38:41;;;;;;;14.00;8.20;;;;;;;11.38;66.59;99740.22;112479;1190;61723;-23
2021/10/28 08:41:10;;;;;;;14.90;9.30;;;;;;;11.39;66.51;99736.64;112516;1190;61380;-23
2021/10/28 08:43:42;;;;;;;12.80;8.10;;;;;;;11.05;67.06;99736.84;112519;1190;75217;-23
2021/10/28 08:46:12;;;;;;;14.50;7.70;;;;;;;10.78;67.40;99737.91;112409;1190;75558;-23
2021/10/28 08:48:45;;;;;;;98.80;13.00;;;;;;;10.98;66.80;99745.86;112430;1192;74107;-23
2021/10/28 08:51:25;;;;;;;14.20;8.40;;;;;;;11.49;65.88;99749.67;112408;1190;61932;-23
2021/10/28 08:54:10;;;;;;;13.60;9.10;;;;;;;11.40;65.86;99748.09;112394;1190;61328;-22
2021/10/28 09:19:37;;;;;;;8.80;4.80;;;;;;;12.13;63.66;99733.04;112481;1190;61704;-22
2021/10/28 09:24:58;;;;;;;12.80;8.60;;;;;;;11.93;64.00;99731.96;112420;1190;75201;-23
2021/10/28 09:27:42;;;;;;;16.60;7.60;;;;;;;11.89;64.26;99732.76;112211;1192;75762;-23
2021/10/28 09:30:20;;;;;;;12.40;6.90;;;;;;;11.97;64.35;99741.44;112390;1190;73942;-23
2021/10/28 09:32:52;;;;;;;11.60;7.40;;;;;;;11.87;64.17;99736.10;112387;1193;61460;-22
2021/10/28 09:52:00;;;;;;;9.10;6.00;;;;;;;12.65;61.24;99736.35;112479;1192;74371;-22
2021/10/28 09:57:35;;;;;;;9.00;6.90;;;;;;;12.52;61.87;99733.57;112405;1192;75373;-20
2021/10/28 09:57:52;;;;;;;9.80;5.70;;;;;;;12.25;62.93;99731.48;112460;1193;72710;-22
2021/10/28 10:00:34;;;;;;;8.30;6.30;;;;;;;12.03;62.90;99711.39;112503;1190;61117;-23
2021/10/28 10:03:09;;;;;;;11.40;6.30;;;;;;;11.77;63.93;99722.19;112205;1192;61730;-22
2021/10/28 10:05:38;;;;;;;12.70;6.20;;;;;;;11.64;64.62;99726.66;112441;1190;73252;-21
2021/10/28 10:08:07;;;;;;;10.00;7.00;;;;;;;11.63;64.40;99722.19;112459;1190;75371;-20
2021/10/28 10:10:36;;;;;;;13.00;8.00;;;;;;;11.68;64.75;99730.67;112421;1192;72567;-27
2021/10/28 10:13:14;;;;;;;14.20;8.20;;;;;;;11.79;64.46;99724.50;112420;1190;60805;-23
2021/10/28 10:15:44;;;;;;;12.50;7.70;;;;;;;11.72;64.42;99709.86;112197;1193;60790;-22
2021/10/28 10:18:13;;;;;;;12.20;7.00;;;;;;;11.73;64.41;99714.33;112493;1190;74168;-24
2021/10/28 10:20:48;;;;;;;10.20;6.40;;;;;;;12.06;63.84;99720.70;112440;1190;74333;-24
2021/10/28 10:23:28;;;;;;;8.90;5.20;;;;;;;12.55;62.21;99724.28;112171;1190;74000;-25
2021/10/28 11:20:37;;;;;;;8.60;5.60;;;;;;;12.15;65.20;99747.91;112442;1191;75481;-19
2021/10/28 12:22:36;;;;;;;5.60;4.50;;;;;;;11.80;68.10;99737.10;112422;1190;60768;-23
2021/10/28 13:06:35;;;;;;;9.00;4.70;;;;;;;11.42;70.66;99756.97;112225;1190;60815;-23
2021/10/28 13:51:23;;;;;;;10.80;6.00;;;;;;;12.01;68.77;99757.10;112554;1190;75422;-24
2021/10/28 13:54:17;;;;;;;7.30;4.50;;;;;;;11.93;69.16;99757.38;112426;1192;72758;-21
2021/10/28 13:59:36;;;;;;;10.20;6.70;;;;;;;11.48;70.63;99749.06;112421;1192;60893;-21
2021/10/28 15:33:59;;;;;;;8.90;6.90;;;;;;;11.18;72.10;99778.68;112468;1190;73924;-23
2021/10/28 15:37:17;;;;;;;41.90;8.30;;;;;;;11.02;72.53;99777.23;112493;1190;61484;-23
2021/10/28 15:39:25;;;;;;;8.90;5.40;;;;;;;10.95;73.26;99778.05;112462;1190;60857;-23
2021/10/28 15:53:30;;;;;;;12.80;7.50;;;;;;;11.21;71.80;99787.31;112555;1190;60846;-22
2021/10/28 16:23:47;;;;;;;12.20;7.70;;;;;;;12.14;68.83;99817.07;112504;1190;74311;-24
2021/10/28 16:26:16;;;;;;;8.70;6.60;;;;;;;12.04;69.11;99817.48;112479;1193;75860;-21
2021/10/28 16:28:44;;;;;;;11.70;7.00;;;;;;;11.86;69.25;99815.85;112458;1192;73453;-22
2021/10/28 16:31:14;;;;;;;13.40;7.50;;;;;;;11.63;70.04;99813.83;112477;1190;61495;-22
2021/10/28 16:33:44;;;;;;;11.80;8.30;;;;;;;11.38;70.82;99817.40;112218;1193;61624;-22
2021/10/28 16:36:14;;;;;;;12.60;8.40;;;;;;;11.18;71.59;99815.00;112554;1190;75340;-22
2021/10/28 16:38:43;;;;;;;9.40;5.80;;;;;;;11.05;72.23;99823.03;112450;1193;74715;-22
2021/10/28 16:41:17;;;;;;;9.90;6.40;;;;;;;11.54;71.24;99828.56;112535;1190;72594;-24
2021/10/28 16:43:45;;;;;;;10.00;6.30;;;;;;;12.10;69.19;99831.31;112531;1190;61503;-23
2021/10/28 16:46:14;;;;;;;11.80;6.50;;;;;;;12.13;68.80;99834.17;112578;1190;60815;-21
2021/10/28 16:48:43;;;;;;;13.30;7.70;;;;;;;11.96;69.00;99831.24;112569;1190;75493;-22
2021/10/28 16:51:12;;;;;;;11.50;7.40;;;;;;;11.77;69.42;99828.47;112494;1193;74098;-22
2021/10/28 16:53:43;;;;;;;11.50;7.70;;;;;;;11.56;69.75;99824.95;112456;1190;72482;-22
2021/10/28 16:56:19;;;;;;;13.70;8.30;;;;;;;11.34;70.57;99828.08;112524;1190;60812;-22
2021/10/28 16:58:50;;;;;;;15.50;8.60;;;;;;;11.10;71.82;99823.78;112172;1194;61714;-22
2021/10/28 17:01:19;;;;;;;11.80;6.40;;;;;;;10.95;72.48;99830.01;112465;1190;75377;-22
2021/10/28 17:03:48;;;;;;;14.00;6.60;;;;;;;11.44;71.37;99836.05;112506;1177;74270;-24
2021/10/28 17:06:17;;;;;;;11.30;6.90;;;;;;;12.02;69.31;99838.48;112487;1193;74117;-23
2021/10/28 17:08:49;;;;;;;10.80;7.30;;;;;;;12.10;68.69;99842.64;112478;1190;60751;-23
2021/10/28 17:11:17;;;;;;;11.80;7.50;;;;;;;11.98;68.84;99841.71;112565;1190;60825;-24
2021/10/28 17:13:50;;;;;;;11.20;7.40;;;;;;;11.77;69.13;99836.33;112483;1193;75193;-24
2021/10/28 17:16:19;;;;;;;11.40;8.10;;;;;;;11.52;69.82;99839.02;112418;1192;74651;-23
2021/10/28 17:18:50;;;;;;;13.60;8.40;;;;;;;11.29;70.52;99840.45;112448;1191;72404;-23
2021/10/28 17:21:19;;;;;;;14.90;8.40;;;;;;;11.10;71.26;99836.75;112273;1192;60870;-22
2021/10/28 17:23:58;;;;;;;11.20;6.30;;;;;;;10.98;71.61;99835.70;112525;1190;60836;-22
2021/10/28 17:26:28;;;;;;;9.40;6.50;;;;;;;11.53;70.70;99837.36;112540;1190;75305;-22
2021/10/28 17:29:01;;;;;;;10.90;7.30;;;;;;;12.04;68.80;99843.20;112227;1191;75799;-22
2021/10/28 17:31:32;;;;;;;11.50;7.10;;;;;;;12.06;68.35;99842.05;112458;1190;73121;-22
2021/10/28 17:34:02;;;;;;;12.50;7.70;;;;;;;11.84;68.95;99843.23;112242;1193;60873;-22
2021/10/28 17:36:33;;;;;;;14.80;9.20;;;;;;;11.55;69.55;99841.89;112445;1192;60870;-21
2021/10/28 17:39:05;;;;;;;13.00;9.70;;;;;;;11.26;70.72;99841.52;112541;1190;73834;-22
2021/10/28 17:41:36;;;;;;;17.90;10.20;;;;;;;10.90;72.04;99841.63;112514;1192;74217;-22
2021/10/28 17:44:06;;;;;;;11.90;6.90;;;;;;;10.76;72.80;99837.95;112502;1193;72808;-22
2021/10/28 17:46:35;;;;;;;11.80;7.40;;;;;;;11.20;71.92;99839.20;112420;1190;61722;-23
2021/10/28 17:49:07;;;;;;;14.00;8.60;;;;;;;11.56;70.03;99835.90;112546;1190;60843;-21
2021/10/28 17:51:38;;;;;;;13.40;8.70;;;;;;;11.55;69.77;99837.05;112398;1193;74825;-22
2021/10/28 17:54:10;;;;;;;17.80;9.30;;;;;;;11.36;70.32;99838.91;112219;1193;74700;-23
2021/10/28 17:56:44;;;;;;;14.70;9.90;;;;;;;11.12;71.34;99837.98;112399;1192;74925;-22
2021/10/28 17:59:13;;;;;;;16.90;10.60;;;;;;;10.93;71.93;99840.21;112291;1192;60769;-23
2021/10/28 18:01:42;;;;;;;17.10;11.00;;;;;;;10.70;72.97;99842.98;112425;1190;60809;-22
2021/10/28 18:04:19;;;;;;;14.70;9.00;;;;;;;10.63;73.24;99846.94;112478;1191;74093;-22
2021/10/28 18:06:50;;;;;;;12.90;8.50;;;;;;;11.16;71.69;99848.84;112536;1190;75581;-23
2021/10/28 18:09:23;;;;;;;12.90;8.10;;;;;;;11.65;69.60;99849.70;112478;1190;74053;-23
2021/10/28 18:11:53;;;;;;;13.90;8.40;;;;;;;11.70;69.51;99853.67;112531;1190;60809;-22
2021/10/28 18:14:24;;;;;;;12.90;8.30;;;;;;;11.55;69.70;99850.25;112540;1190;61644;-23
2021/10/28 18:16:52;;;;;;;18.40;10.20;;;;;;;11.32;70.44;99846.67;112486;1193;73218;-22
2021/10/28 18:19:22;;;;;;;14.70;9.20;;;;;;;11.06;71.50;99846.27;112522;1190;75704;-22
2021/10/28 18:21:55;;;;;;;18.20;10.00;;;;;;;10.87;72.22;99848.13;112430;1190;73075;-22
2021/10/28 18:24:26;;;;;;;10.80;6.80;;;;;;;10.72;72.83;99848.26;112262;1193;61108;-23
2021/10/28 18:27:01;;;;;;;15.70;9.00;;;;;;;11.24;71.40;99847.21;112440;1193;60847;-24
2021/10/28 18:29:30;;;;;;;13.20;8.00;;;;;;;11.66;69.78;99846.17;112503;1193;74368;-24
2021/10/28 18:31:58;;;;;;;13.70;8.70;;;;;;;11.63;69.42;99844.59;112339;1193;74440;-22
2021/10/28 18:34:27;;;;;;;15.00;8.70;;;;;;;11.45;70.11;99843.50;112449;1192;73197;-24
2021/10/28 18:36:58;;;;;;;14.10;9.70;;;;;;;11.19;70.80;99846.41;112429;1192;60831;-24
2021/10/28 18:39:26;;;;;;;17.40;10.40;;;;;;;10.98;71.59;99851.66;112508;1192;60822;-23
2021/10/28 18:41:57;;;;;;;14.50;9.60;;;;;;;10.74;72.79;99853.70;112453;1190;74181;-23
2021/10/28 18:44:26;;;;;;;16.00;9.10;;;;;;;10.63;72.90;99856.55;112457;1192;74437;-23
2021/10/28 18:46:58;;;;;;;14.40;8.60;;;;;;;11.12;71.99;99859.55;112472;1190;73686;-23
2021/10/28 18:49:26;;;;;;;13.20;9.10;;;;;;;11.68;69.87;99860.39;112421;1190;61808;-23
2021/10/28 18:51:54;;;;;;;15.80;8.90;;;;;;;11.73;69.14;99864.28;112481;1190;60741;-23
2021/10/28 18:54:23;;;;;;;13.70;9.30;;;;;;;11.56;69.59;99864.23;112548;1192;75154;-23
2021/10/28 18:56:52;;;;;;;16.00;8.80;;;;;;;11.36;70.08;99861.84;112531;1190;75370;-23
2021/10/28 18:59:20;;;;;;;15.50;10.30;;;;;;;11.11;70.93;99859.44;112516;1191;73229;-23
2021/10/28 19:01:50;;;;;;;16.60;10.00;;;;;;;10.86;72.04;99859.30;112470;1190;60806;-22
2021/10/28 19:04:19;;;;;;;18.90;8.50;;;;;;;10.66;72.88;99860.15;112550;1190;61515;-22
2021/10/28 19:06:50;;;;;;;15.20;9.80;;;;;;;11.03;71.96;99867.52;112521;1191;75234;-22
2021/10/28 19:09:20;;;;;;;15.90;9.40;;;;;;;11.39;70.38;99866.70;112278;1191;74460;-21
2021/10/28 19:11:49;;;;;;;19.00;10.70;;;;;;;11.46;70.14;99871.27;112451;1190;73913;-22
2021/10/28 19:14:19;;;;;;;16.30;10.50;;;;;;;11.26;70.61;99871.45;112529;1190;61625;-22
2021/10/28 19:16:47;;;;;;;16.80;10.10;;;;;;;11.04;71.50;99872.95;112507;1190;60880;-22
2021/10/28 19:19:16;;;;;;;18.10;9.50;;;;;;;10.81;72.39;99867.09;112503;1190;75188;-22
2021/10/28 19:21:45;;;;;;;14.10;10.30;;;;;;;10.59;73.11;99868.45;112517;1192;75908;-22
2021/10/28 19:24:14;;;;;;;17.20;9.00;;;;;;;10.42;73.98;99867.80;112557;1190;74066;-22
2021/10/28 19:26:43;;;;;;;16.80;9.60;;;;;;;10.89;72.75;99872.29;112523;1191;61514;-22
2021/10/28 19:29:12;;;;;;;15.50;9.60;;;;;;;11.44;70.99;99874.14;112523;1190;60796;-21
2021/10/28 19:31:55;;;;;;;15.40;10.90;;;;;;;11.49;70.23;99873.98;112604;1190;75213;-22
2021/10/28 19:34:24;;;;;;;15.20;9.50;;;;;;;11.26;70.77;99873.50;112540;1190;75663;-22
2021/10/28 19:47:53;;;;;;;20.00;12.30;;;;;;;11.41;70.40;99900.42;112408;1191;76264;-22
2021/10/28 19:50:21;;;;;;;17.80;12.10;;;;;;;11.33;70.60;99902.23;112443;1191;71246;-22
2021/10/28 19:52:52;;;;;;;19.30;11.60;;;;;;;11.20;71.10;99893.58;112461;1190;60834;-22
2021/10/28 19:55:21;;;;;;;20.50;13.30;;;;;;;11.00;71.65;99895.34;112630;1190;60902;-22
2021/10/28 19:57:53;;;;;;;18.70;12.10;;;;;;;10.76;72.75;99893.64;112519;1192;74186;-22
2021/10/28 20:05:38;;;;;;;19.80;11.60;;;;;;;11.68;70.16;99892.92;112473;1184;60869;-22
2021/10/28 20:22:05;;;;;;;18.80;10.20;;;;;;;10.60;73.44;99898.90;112265;1192;60896;-25
2021/10/28 20:24:34;;;;;;;17.40;9.70;;;;;;;11.22;71.92;99897.92;112505;1193;75190;-23